Los Angeles, California
Traffic Map
Current Weather Conditions
Los Angeles, California
Clear Haze
Clear
24°
Feels Like: 24°
Wind Chill: 24° Ceiling: Unl
Heat Index: 24° Visibility: 4mi
Dew Point: 14° Wind: 6mph
Humidity: 55% Direction: ° ()
Pressure: 30.04in Gusts: 0mph
Raw Report DataKCQT 291847Z AUTO VRB05KT 4SM HZ CLR 24/14 A3004 RMK AO2 SLP170 T02390144
Traffic Incident Summary
Active as of:
Severity:
Category:
InformationThere was an issue retrieving the traffic information for this location. Please try a different location or try again shortly.
Advertisements
Track Severe Weather on mobile